Time;durP1;ratioP1;P1;durP2;ratioP2;P2;SDS_P1;SDS_P2;PMS_P1;PMS_P2;Temp;Humidity;BMP_temperature;BMP_pressure;BME280_temperature;BME280_humidity;BME280_pressure;Samples;Min_cycle;Max_cycle;Signal;HPM_P1;HPM_P2
2021/06/16 00:02:53;;;;;;;5.20;1.40;;;17.40;64.50;;;;;;10534246;28;20654;-26
2021/06/16 00:08:15;;;;;;;5.03;1.30;;;17.40;64.60;;;;;;10533417;28;20196;-25
2021/06/16 00:13:39;;;;;;;4.23;1.50;;;17.40;64.80;;;;;;10539480;28;20722;-26
2021/06/16 00:19:01;;;;;;;5.23;1.33;;;17.30;64.80;;;;;;10501043;28;20192;-26
2021/06/16 00:24:23;;;;;;;5.10;1.80;;;17.30;64.80;;;;;;10500101;28;20216;-26
2021/06/16 00:29:46;;;;;;;3.67;1.30;;;17.20;65.00;;;;;;10499816;28;20219;-26
2021/06/16 00:35:09;;;;;;;5.50;1.40;;;17.20;65.00;;;;;;10495486;28;20227;-27
2021/06/16 00:40:32;;;;;;;5.37;1.60;;;17.20;65.10;;;;;;10499810;28;20200;-25
2021/06/16 00:45:55;;;;;;;4.60;1.50;;;17.10;65.30;;;;;;10498332;28;20219;-27
2021/06/16 00:51:17;;;;;;;6.93;1.70;;;17.10;65.40;;;;;;10499035;28;20584;-25
2021/06/16 00:56:41;;;;;;;4.23;1.57;;;17.00;65.50;;;;;;10499202;28;20234;-26
2021/06/16 01:02:05;;;;;;;6.07;1.80;;;17.00;65.70;;;;;;10497634;28;20571;-25
2021/06/16 01:07:32;;;;;;;4.97;1.93;;;17.00;65.70;;;;;;10497269;28;20222;-25
2021/06/16 01:13:01;;;;;;;5.13;1.63;;;17.00;65.70;;;;;;10497790;28;20567;-26
2021/06/16 01:18:26;;;;;;;4.50;1.53;;;16.80;66.10;;;;;;10497399;28;20206;-25
2021/06/16 01:24:01;;;;;;;7.13;2.00;;;16.70;66.40;;;;;;10498604;28;20706;-25
2021/06/16 01:29:29;;;;;;;5.17;1.43;;;16.70;66.60;;;;;;10497515;28;20274;-25
2021/06/16 01:34:52;;;;;;;2.57;1.53;;;16.60;67.00;;;;;;10493560;28;20583;-24
2021/06/16 01:40:15;;;;;;;4.30;2.20;;;16.50;67.20;;;;;;10498232;28;20198;-26
2021/06/16 01:45:40;;;;;;;5.67;1.77;;;16.50;67.30;;;;;;10496346;28;20219;-28
2021/06/16 01:51:02;;;;;;;4.67;2.00;;;16.40;67.30;;;;;;10496042;28;20221;-26
2021/06/16 01:56:25;;;;;;;4.10;1.60;;;16.30;67.20;;;;;;10496702;28;20216;-25
2021/06/16 02:01:50;;;;;;;7.50;2.03;;;16.30;67.30;;;;;;10496847;28;20422;-26
2021/06/16 02:07:15;;;;;;;7.27;2.07;;;16.20;67.50;;;;;;10496385;28;20220;-25
2021/06/16 02:12:39;;;;;;;5.27;1.80;;;16.20;67.30;;;;;;10494366;28;20199;-25
2021/06/16 02:18:05;;;;;;;4.60;1.73;;;16.20;67.50;;;;;;10535521;28;20224;-25
2021/06/16 02:23:28;;;;;;;5.57;1.80;;;16.10;68.60;;;;;;10536360;28;20586;-25
2021/06/16 02:28:50;;;;;;;6.40;2.07;;;16.20;67.80;;;;;;10537586;28;20588;-26
2021/06/16 02:34:14;;;;;;;5.03;1.73;;;16.20;67.50;;;;;;10533484;28;20720;-27
2021/06/16 02:39:40;;;;;;;4.47;1.80;;;16.20;67.30;;;;;;10534688;28;20202;-25
2021/06/16 02:45:03;;;;;;;5.30;1.77;;;16.20;67.30;;;;;;10536786;28;20208;-26
2021/06/16 02:50:28;;;;;;;4.30;2.13;;;16.10;67.80;;;;;;10536495;28;20198;-25
2021/06/16 02:55:54;;;;;;;6.50;1.83;;;16.10;67.70;;;;;;10535987;28;20246;-27
2021/06/16 03:01:18;;;;;;;3.83;2.10;;;16.10;67.30;;;;;;10534147;28;20274;-27
2021/06/16 03:06:43;;;;;;;4.87;1.80;;;16.00;67.40;;;;;;10536884;28;20209;-26
2021/06/16 03:12:08;;;;;;;3.83;1.97;;;16.00;67.70;;;;;;10533759;28;20201;-27
2021/06/16 03:17:30;;;;;;;4.83;2.10;;;16.00;67.80;;;;;;10495138;28;20220;-25
2021/06/16 03:22:55;;;;;;;6.87;2.00;;;16.00;67.80;;;;;;10522979;28;20196;-25
2021/06/16 03:28:19;;;;;;;4.07;2.10;;;16.00;68.00;;;;;;10528536;28;20574;-29
2021/06/16 03:33:42;;;;;;;5.20;1.87;;;16.00;68.00;;;;;;10534493;28;20443;-27
2021/06/16 03:39:07;;;;;;;5.73;2.43;;;16.00;68.00;;;;;;10492021;28;20210;-27
2021/06/16 03:44:30;;;;;;;5.67;2.03;;;16.00;68.00;;;;;;10518719;28;20643;-26
2021/06/16 03:49:55;;;;;;;6.60;2.10;;;16.00;67.80;;;;;;10543713;28;20197;-23
2021/06/16 03:55:21;;;;;;;4.33;1.93;;;16.00;68.00;;;;;;10540570;28;20222;-27
2021/06/16 04:00:44;;;;;;;5.13;2.07;;;16.00;68.20;;;;;;10539582;28;20201;-24
2021/06/16 04:06:08;;;;;;;7.17;2.40;;;16.00;68.30;;;;;;10539417;28;20211;-25
2021/06/16 04:11:32;;;;;;;6.23;2.33;;;16.00;68.90;;;;;;10541904;28;20213;-28
2021/06/16 04:16:57;;;;;;;7.40;2.30;;;16.10;68.70;;;;;;10541668;28;20227;-25
2021/06/16 04:22:20;;;;;;;3.37;2.00;;;16.10;69.00;;;;;;10542480;28;20197;-27
2021/06/16 04:27:43;;;;;;;8.43;2.67;;;16.20;68.80;;;;;;10542572;28;20687;-26
2021/06/16 04:33:07;;;;;;;5.90;2.60;;;16.20;69.00;;;;;;10542325;28;20599;-25
2021/06/16 04:38:29;;;;;;;6.50;2.27;;;16.30;69.50;;;;;;10538935;28;20224;-25
2021/06/16 04:43:53;;;;;;;7.37;2.30;;;16.30;69.30;;;;;;10537335;28;20221;-24
2021/06/16 04:49:16;;;;;;;6.63;1.80;;;16.40;69.00;;;;;;10548506;28;20708;-26
2021/06/16 04:54:38;;;;;;;4.47;1.50;;;16.60;69.10;;;;;;10547218;28;20219;-25
2021/06/16 05:00:01;;;;;;;4.37;1.50;;;16.70;68.90;;;;;;10518993;28;20198;-25
2021/06/16 05:05:24;;;;;;;4.50;1.43;;;16.70;68.10;;;;;;10523508;28;20216;-27
2021/06/16 05:10:46;;;;;;;7.17;2.00;;;16.80;68.00;;;;;;10539491;28;20207;-26
2021/06/16 05:16:10;;;;;;;4.67;1.40;;;16.80;67.30;;;;;;10501548;22;20636;-24
2021/06/16 05:21:32;;;;;;;6.60;1.80;;;16.90;67.30;;;;;;10321570;28;20212;-23
2021/06/16 05:26:54;;;;;;;6.00;1.80;;;16.90;67.40;;;;;;10335330;28;20224;-24
2021/06/16 05:32:18;;;;;;;5.03;1.60;;;17.00;67.30;;;;;;10318501;28;20209;-24
2021/06/16 05:37:43;;;;;;;2.93;1.50;;;17.10;67.40;;;;;;10321960;28;20235;-24
2021/06/16 05:43:06;;;;;;;4.67;1.70;;;17.10;67.20;;;;;;10324552;28;20213;-24
2021/06/16 05:48:29;;;;;;;5.30;2.07;;;17.20;67.60;;;;;;10326787;28;20217;-23
2021/06/16 05:53:51;;;;;;;5.90;1.90;;;17.30;67.60;;;;;;10327624;28;20203;-24
2021/06/16 05:59:13;;;;;;;4.17;1.80;;;17.40;67.80;;;;;;10326525;28;20218;-24
2021/06/16 06:04:39;;;;;;;5.03;1.67;;;17.40;67.80;;;;;;10325145;28;20207;-25
2021/06/16 06:10:01;;;;;;;6.77;2.00;;;17.50;68.00;;;;;;10326323;28;20234;-23
2021/06/16 06:15:23;;;;;;;2.63;1.60;;;17.60;67.60;;;;;;10325384;28;20594;-23
2021/06/16 06:20:47;;;;;;;4.47;2.13;;;17.70;67.70;;;;;;10325177;28;20202;-25
2021/06/16 06:26:09;;;;;;;4.47;2.20;;;17.80;67.70;;;;;;10354336;28;20210;-24
2021/06/16 06:31:31;;;;;;;5.20;1.80;;;17.90;68.10;;;;;;10454713;28;20202;-22
2021/06/16 06:36:55;;;;;;;5.20;2.30;;;18.00;68.70;;;;;;10326495;28;20238;-25
2021/06/16 06:42:17;;;;;;;6.00;2.20;;;18.00;68.80;;;;;;10339668;28;20208;-24
2021/06/16 06:47:39;;;;;;;6.77;1.90;;;18.10;68.90;;;;;;10378152;28;20203;-25
2021/06/16 06:53:03;;;;;;;5.43;1.97;;;18.20;69.00;;;;;;10322103;28;20641;-24
2021/06/16 06:58:25;;;;;;;3.73;1.83;;;18.20;69.10;;;;;;10324396;28;20234;-24
2021/06/16 07:03:47;;;;;;;2.53;1.80;;;18.30;69.10;;;;;;10320809;28;20207;-25
2021/06/16 07:09:11;;;;;;;4.63;1.87;;;18.30;69.00;;;;;;10290146;28;20226;-24
2021/06/16 07:14:36;;;;;;;5.77;1.80;;;18.40;69.10;;;;;;10308790;28;20666;-25
2021/06/16 07:19:59;;;;;;;5.40;2.13;;;18.40;68.80;;;;;;10288864;28;20202;-25
2021/06/16 07:25:22;;;;;;;4.83;1.70;;;18.50;68.70;;;;;;10322488;28;20219;-24
2021/06/16 07:30:44;;;;;;;3.57;1.43;;;18.60;68.30;;;;;;10321214;28;20202;-24
2021/06/16 07:36:07;;;;;;;5.73;1.80;;;18.60;68.00;;;;;;10313852;28;20238;-25
2021/06/16 07:41:30;;;;;;;4.53;1.80;;;18.70;67.80;;;;;;10375934;28;20199;-24
2021/06/16 07:46:53;;;;;;;2.73;1.30;;;18.70;67.80;;;;;;10321560;28;20222;-24
2021/06/16 07:52:15;;;;;;;2.37;1.10;;;18.70;67.80;;;;;;10323177;28;20582;-25
2021/06/16 07:57:39;;;;;;;3.83;1.60;;;18.70;67.80;;;;;;10322273;28;20230;-25
2021/06/16 08:03:01;;;;;;;3.00;1.40;;;18.80;68.00;;;;;;10321966;28;20199;-25
2021/06/16 08:08:24;;;;;;;3.87;1.40;;;18.80;68.00;;;;;;10321704;28;20559;-25
2021/06/16 08:13:47;;;;;;;2.10;1.30;;;18.80;68.00;;;;;;10323240;28;20231;-25
2021/06/16 08:19:09;;;;;;;2.13;1.20;;;18.80;68.00;;;;;;10321824;28;20685;-25
2021/06/16 08:24:31;;;;;;;2.77;1.70;;;18.80;68.10;;;;;;10323338;28;20203;-25
2021/06/16 08:29:55;;;;;;;3.17;1.10;;;18.80;68.40;;;;;;10310210;28;20207;-25
2021/06/16 08:35:17;;;;;;;6.17;1.40;;;18.80;68.10;;;;;;10327426;28;20721;-25
2021/06/16 08:40:39;;;;;;;2.37;1.40;;;18.90;67.70;;;;;;10525478;28;20195;-25
2021/06/16 08:46:05;;;;;;;2.13;1.60;;;19.00;67.70;;;;;;10288736;28;20215;-25
2021/06/16 08:51:27;;;;;;;6.17;1.50;;;19.00;67.70;;;;;;10303075;28;20666;-25
2021/06/16 08:56:49;;;;;;;4.73;1.47;;;19.10;66.90;;;;;;10323142;28;20245;-25
2021/06/16 09:02:12;;;;;;;3.63;1.30;;;19.10;66.60;;;;;;10306988;28;20632;-25
2021/06/16 09:07:37;;;;;;;2.40;1.40;;;19.10;66.80;;;;;;10327883;28;20281;-25
2021/06/16 09:13:04;;;;;;;3.27;1.20;;;19.20;66.60;;;;;;10327485;28;20199;-26
2021/06/16 09:18:42;;;;;;;2.87;1.50;;;19.10;66.80;;;;;;10327832;28;20240;-25
2021/06/16 09:24:05;;;;;;;3.10;1.43;;;19.20;66.50;;;;;;10326802;28;20203;-25
2021/06/16 09:29:29;;;;;;;2.23;1.50;;;19.20;66.30;;;;;;10318609;28;20686;-25
2021/06/16 09:34:56;;;;;;;2.90;1.50;;;19.30;66.30;;;;;;10327198;28;20192;-25
2021/06/16 09:40:25;;;;;;;2.23;1.30;;;19.30;66.20;;;;;;10302869;28;20208;-26
2021/06/16 09:45:52;;;;;;;2.53;1.50;;;19.30;66.10;;;;;;10288591;28;20366;-24
2021/06/16 09:51:19;;;;;;;2.13;1.30;;;19.30;65.50;;;;;;10323601;28;20305;-25
2021/06/16 09:56:44;;;;;;;3.10;1.20;;;19.30;65.80;;;;;;10319234;28;20230;-25
2021/06/16 10:02:15;;;;;;;1.50;1.40;;;19.30;66.10;;;;;;10318238;28;20713;-25
2021/06/16 10:07:38;;;;;;;2.30;1.53;;;19.30;66.20;;;;;;10299631;28;20219;-25
2021/06/16 10:13:00;;;;;;;3.40;1.80;;;19.30;66.00;;;;;;10287399;28;20204;-25
2021/06/16 10:18:24;;;;;;;5.23;1.33;;;19.30;66.60;;;;;;10287924;28;20246;-25
2021/06/16 10:23:47;;;;;;;1.40;1.30;;;19.30;66.70;;;;;;10321211;28;20199;-26
2021/06/16 10:29:14;;;;;;;5.63;1.70;;;19.30;66.30;;;;;;10311712;28;20222;-25
2021/06/16 10:34:59;;;;;;;2.73;1.67;;;19.30;66.60;;;;;;10288212;28;20223;-25
2021/06/16 10:40:30;;;;;;;3.33;2.13;;;19.40;66.20;;;;;;10504638;28;20286;-25
2021/06/16 10:45:55;;;;;;;3.40;1.70;;;19.40;66.50;;;;;;10506836;28;20255;-25
2021/06/16 10:51:42;;;;;;;2.23;1.60;;;19.30;66.90;;;;;;10322647;28;20206;-26
2021/06/16 10:57:11;;;;;;;6.43;1.83;;;19.40;66.80;;;;;;10283209;28;20694;-26
2021/06/16 11:03:04;;;;;;;3.43;2.00;;;19.30;67.20;;;;;;10301638;28;20198;-25
2021/06/16 11:08:47;;;;;;;3.37;1.80;;;19.30;67.40;;;;;;10493594;28;20205;-26
2021/06/16 11:14:28;;;;;;;2.00;1.63;;;19.30;67.70;;;;;;10501366;28;20187;-25
2021/06/16 11:19:56;;;;;;;2.93;1.63;;;19.30;68.10;;;;;;10372877;22;20227;-28
2021/06/16 11:25:37;;;;;;;5.73;1.90;;;19.30;68.40;;;;;;10310082;28;20278;-27
2021/06/16 11:31:06;;;;;;;2.67;2.40;;;19.40;68.10;;;;;;10284859;28;20223;-27
2021/06/16 11:36:39;;;;;;;2.40;2.10;;;19.40;67.90;;;;;;10303736;28;20273;-28
2021/06/16 11:42:01;;;;;;;4.20;1.80;;;19.40;67.80;;;;;;10383650;28;20305;-27
2021/06/16 11:47:26;;;;;;;2.20;2.00;;;19.40;68.00;;;;;;10278511;28;20215;-28
2021/06/16 11:52:57;;;;;;;3.07;2.73;;;19.50;68.00;;;;;;10246535;28;20219;-26
2021/06/16 11:58:27;;;;;;;7.63;3.07;;;19.50;68.10;;;;;;10281804;28;20224;-26
2021/06/16 12:04:01;;;;;;;3.07;2.40;;;19.50;68.00;;;;;;10284331;28;20574;-26
2021/06/16 12:09:23;;;;;;;5.27;2.70;;;19.50;68.50;;;;;;10249746;28;20217;-26
2021/06/16 12:14:45;;;;;;;6.20;2.77;;;19.50;68.60;;;;;;10283404;28;20207;-26
2021/06/16 12:20:10;;;;;;;4.33;2.90;;;19.50;68.50;;;;;;10288214;28;20232;-26
2021/06/16 12:25:34;;;;;;;4.63;2.60;;;19.50;68.80;;;;;;10288932;28;20590;-26
2021/06/16 12:30:57;;;;;;;4.23;2.77;;;19.50;68.90;;;;;;10289566;28;20211;-26
2021/06/16 12:36:22;;;;;;;5.37;3.47;;;19.50;69.20;;;;;;10274779;28;20241;-26
2021/06/16 12:41:50;;;;;;;5.03;3.63;;;19.60;70.20;;;;;;10286084;28;20200;-28
2021/06/16 12:47:14;;;;;;;6.40;3.93;;;19.60;69.60;;;;;;10288282;28;20216;-28
2021/06/16 12:52:38;;;;;;;4.37;3.40;;;19.60;69.60;;;;;;10255099;28;20204;-26
2021/06/16 12:58:03;;;;;;;5.80;3.93;;;19.60;69.70;;;;;;10300507;28;20310;-26
2021/06/16 13:03:27;;;;;;;6.07;4.10;;;19.60;70.00;;;;;;10294099;28;20475;-27
2021/06/16 13:08:59;;;;;;;4.67;3.73;;;19.60;69.90;;;;;;10261839;28;20686;-27
2021/06/16 13:14:25;;;;;;;6.20;4.10;;;19.70;70.20;;;;;;10286591;28;20203;-28
2021/06/16 13:19:57;;;;;;;6.23;3.83;;;19.70;70.60;;;;;;10286825;28;20215;-26
2021/06/16 13:25:27;;;;;;;6.73;4.50;;;19.70;70.40;;;;;;10288138;28;20204;-27
2021/06/16 13:30:49;;;;;;;4.53;3.70;;;19.70;70.80;;;;;;10251035;28;20196;-29
2021/06/16 13:36:13;;;;;;;7.30;4.73;;;19.70;71.00;;;;;;10286221;28;20606;-27
2021/06/16 13:41:38;;;;;;;6.20;4.53;;;19.70;71.00;;;;;;10324985;28;20686;-27
2021/06/16 13:47:00;;;;;;;8.63;4.33;;;19.70;71.20;;;;;;10329208;28;20262;-27
2021/06/16 13:52:23;;;;;;;6.17;5.30;;;19.70;71.10;;;;;;10246231;28;20200;-26
2021/06/16 13:57:46;;;;;;;5.90;4.97;;;19.80;71.60;;;;;;10276231;28;20227;-27
2021/06/16 14:03:08;;;;;;;5.87;5.20;;;19.80;72.20;;;;;;10328198;28;20204;-26
2021/06/16 14:08:30;;;;;;;6.00;5.17;;;19.80;72.10;;;;;;10288236;28;20713;-27
2021/06/16 14:13:54;;;;;;;7.80;5.30;;;19.80;72.20;;;;;;10287932;28;20208;-27
2021/06/16 14:19:16;;;;;;;6.20;5.13;;;19.90;72.00;;;;;;10272202;28;20235;-27
2021/06/16 14:24:38;;;;;;;7.27;4.90;;;19.90;72.20;;;;;;10283757;28;20215;-27
2021/06/16 14:30:02;;;;;;;5.33;4.83;;;19.90;72.20;;;;;;10244623;29;20208;-26
2021/06/16 14:35:24;;;;;;;6.60;5.30;;;19.90;72.40;;;;;;10244959;28;20579;-25
2021/06/16 14:40:48;;;;;;;5.50;5.00;;;19.80;72.30;;;;;;10458870;28;20219;-27
2021/06/16 14:46:11;;;;;;;7.63;5.10;;;19.90;72.00;;;;;;10244701;28;20232;-27
2021/06/16 14:51:33;;;;;;;6.17;5.57;;;19.90;72.60;;;;;;10245050;28;20196;-26
2021/06/16 14:56:55;;;;;;;6.23;5.63;;;19.90;72.60;;;;;;10260602;28;20711;-25
2021/06/16 15:02:19;;;;;;;10.13;5.83;;;19.80;72.50;;;;;;10302545;28;20625;-26
2021/06/16 15:07:41;;;;;;;6.63;5.23;;;19.90;72.90;;;;;;10283803;28;20211;-27
2021/06/16 15:13:04;;;;;;;6.80;5.93;;;19.90;72.90;;;;;;10280361;28;20670;-27
2021/06/16 15:18:27;;;;;;;5.97;5.40;;;19.90;72.70;;;;;;10252149;28;20232;-28
2021/06/16 15:23:49;;;;;;;8.57;6.10;;;19.90;73.20;;;;;;10264889;28;20204;-27
2021/06/16 15:29:11;;;;;;;7.10;5.73;;;19.90;73.40;;;;;;10260195;28;20242;-28
2021/06/16 15:34:35;;;;;;;9.27;6.40;;;19.90;73.20;;;;;;10264565;28;20205;-27
2021/06/16 15:40:00;;;;;;;10.00;7.60;;;19.90;73.40;;;;;;10380090;28;20238;-28
2021/06/16 15:45:22;;;;;;;8.53;7.33;;;20.00;74.50;;;;;;10291596;28;20225;-26
2021/06/16 15:50:46;;;;;;;11.03;7.27;;;20.00;74.10;;;;;;10289440;28;20198;-26
2021/06/16 15:56:09;;;;;;;10.43;7.17;;;20.00;74.00;;;;;;10287880;28;20698;-28
2021/06/16 16:01:31;;;;;;;8.17;7.37;;;20.00;73.80;;;;;;10340735;28;20195;-27
2021/06/16 16:06:54;;;;;;;9.27;7.57;;;20.00;74.10;;;;;;10368470;28;20219;-28
2021/06/16 16:12:16;;;;;;;7.93;7.23;;;19.90;74.10;;;;;;10248449;29;20220;-27
2021/06/16 16:17:38;;;;;;;8.63;7.73;;;20.00;74.20;;;;;;10249336;28;20234;-26
2021/06/16 16:23:02;;;;;;;11.80;8.80;;;20.00;74.70;;;;;;10277633;28;20196;-27
2021/06/16 16:28:24;;;;;;;9.13;8.23;;;20.00;74.40;;;;;;10287132;28;20265;-27
2021/06/16 16:33:46;;;;;;;8.77;7.97;;;20.00;74.30;;;;;;10289107;28;20207;-28
2021/06/16 16:39:09;;;;;;;11.23;8.23;;;20.00;74.20;;;;;;10423925;28;20217;-28
2021/06/16 16:44:32;;;;;;;10.83;8.63;;;20.10;74.70;;;;;;10498740;28;20196;-26
2021/06/16 16:49:54;;;;;;;9.80;8.10;;;20.10;74.50;;;;;;10497104;28;20219;-27
2021/06/16 16:55:19;;;;;;;9.73;8.37;;;20.10;74.70;;;;;;10289227;28;20204;-28
2021/06/16 17:00:41;;;;;;;10.37;8.93;;;20.00;74.80;;;;;;10254150;28;20229;-26
2021/06/16 17:06:03;;;;;;;9.53;8.63;;;20.00;75.00;;;;;;10287315;28;20223;-26
2021/06/16 17:11:27;;;;;;;9.60;8.60;;;20.00;75.20;;;;;;10296812;28;20199;-26
2021/06/16 17:16:49;;;;;;;10.53;8.57;;;20.00;75.10;;;;;;10320747;28;20657;-26
2021/06/16 17:22:11;;;;;;;11.97;9.23;;;19.90;75.10;;;;;;10295635;28;20674;-28
2021/06/16 17:27:35;;;;;;;9.57;8.50;;;20.00;75.40;;;;;;10280824;28;20761;-28
2021/06/16 17:32:57;;;;;;;10.83;8.90;;;20.00;75.40;;;;;;10349607;22;20692;-27
2021/06/16 17:38:19;;;;;;;9.27;8.43;;;20.00;75.40;;;;;;10371004;28;20234;-28
2021/06/16 17:43:42;;;;;;;11.47;9.17;;;20.00;75.50;;;;;;10362390;28;20223;-32
2021/06/16 17:49:04;;;;;;;9.33;8.43;;;20.00;75.60;;;;;;10368338;28;20226;-33
2021/06/16 17:54:26;;;;;;;9.83;8.83;;;20.00;75.70;;;;;;10365608;28;20338;-30
2021/06/16 17:59:50;;;;;;;14.10;9.37;;;20.00;75.50;;;;;;10367887;28;20214;-28
2021/06/16 18:05:12;;;;;;;10.50;9.37;;;20.00;75.90;;;;;;10368091;28;20201;-30
2021/06/16 18:10:37;;;;;;;10.47;8.87;;;20.00;75.90;;;;;;10364661;28;20696;-29
2021/06/16 18:16:02;;;;;;;11.40;8.93;;;20.00;75.90;;;;;;10359706;28;20275;-33
2021/06/16 18:21:24;;;;;;;10.13;9.13;;;20.00;76.10;;;;;;10369058;28;20271;-26
2021/06/16 18:26:47;;;;;;;11.27;9.50;;;20.00;76.40;;;;;;10390160;28;20653;-35
2021/06/16 18:32:11;;;;;;;10.03;9.03;;;20.00;76.10;;;;;;10360451;28;20230;-35
2021/06/16 18:37:34;;;;;;;10.13;9.03;;;20.00;76.20;;;;;;10359813;28;20217;-30
2021/06/16 18:42:57;;;;;;;10.17;9.17;;;20.00;76.50;;;;;;10359266;28;20219;-29
2021/06/16 18:48:21;;;;;;;11.07;9.30;;;20.00;76.60;;;;;;10357478;28;20208;-29
2021/06/16 18:53:43;;;;;;;11.20;10.10;;;20.00;76.50;;;;;;10363726;28;20221;-28
2021/06/16 18:59:05;;;;;;;10.87;9.77;;;20.00;76.80;;;;;;10355587;28;20225;-28
2021/06/16 19:04:38;;;;;;;10.60;9.53;;;20.10;77.20;;;;;;10355812;28;20331;-33
2021/06/16 19:10:00;;;;;;;11.13;9.33;;;20.10;77.40;;;;;;10369338;28;20697;-28
2021/06/16 19:15:22;;;;;;;12.23;9.30;;;20.10;76.80;;;;;;10404605;28;20697;-30
2021/06/16 19:20:45;;;;;;;15.03;9.93;;;20.10;77.20;;;;;;10391443;28;20222;-32
2021/06/16 19:26:11;;;;;;;10.57;9.47;;;20.10;76.90;;;;;;10364979;28;20237;-30
2021/06/16 19:31:33;;;;;;;11.57;10.47;;;20.10;77.20;;;;;;10365046;28;20685;-29
2021/06/16 19:36:57;;;;;;;11.60;10.23;;;20.10;77.50;;;;;;10403523;28;20191;-27
2021/06/16 19:42:19;;;;;;;13.43;10.27;;;20.10;77.40;;;;;;10563263;28;20207;-25
2021/06/16 19:47:43;;;;;;;10.87;9.70;;;20.10;77.40;;;;;;10367056;28;20689;-27
2021/06/16 19:53:07;;;;;;;10.20;9.07;;;20.10;77.60;;;;;;10439223;28;20214;-26
2021/06/16 19:58:29;;;;;;;11.50;10.30;;;20.10;77.50;;;;;;10362522;28;20215;-27
2021/06/16 20:03:52;;;;;;;10.80;9.70;;;20.10;77.70;;;;;;10363331;28;20210;-27
2021/06/16 20:09:16;;;;;;;11.70;9.80;;;20.10;77.50;;;;;;10526543;28;20194;-36
2021/06/16 20:14:38;;;;;;;11.50;10.00;;;20.10;77.70;;;;;;10575942;28;20358;-30
2021/06/16 20:20:00;;;;;;;10.70;9.63;;;20.10;77.40;;;;;;10541727;28;20578;-28
2021/06/16 20:25:25;;;;;;;10.67;9.47;;;20.10;77.60;;;;;;10364099;28;20236;-30
2021/06/16 20:30:47;;;;;;;10.93;9.83;;;20.00;77.40;;;;;;10373207;28;20210;-29
2021/06/16 20:36:09;;;;;;;10.77;9.77;;;20.10;77.50;;;;;;10566032;28;20209;-28
2021/06/16 20:41:32;;;;;;;10.47;9.47;;;20.00;77.50;;;;;;10583416;28;20226;-28
2021/06/16 20:46:55;;;;;;;9.37;8.57;;;20.00;77.40;;;;;;10399506;28;20210;-41
2021/06/16 20:52:17;;;;;;;11.47;9.57;;;20.10;77.70;;;;;;10365084;28;20499;-31
2021/06/16 20:57:41;;;;;;;10.43;9.43;;;20.00;77.60;;;;;;10368117;28;20697;-33
2021/06/16 21:03:04;;;;;;;10.03;9.10;;;20.00;77.90;;;;;;10368410;28;20712;-28
2021/06/16 21:08:26;;;;;;;9.97;8.97;;;20.00;77.90;;;;;;10365463;28;20243;-34
2021/06/16 21:13:50;;;;;;;9.80;8.80;;;20.00;77.50;;;;;;10370525;28;20224;-32
2021/06/16 21:19:12;;;;;;;9.73;8.83;;;19.90;77.60;;;;;;10368092;28;20719;-27
2021/06/16 21:24:34;;;;;;;9.60;8.70;;;19.90;77.60;;;;;;10368554;28;20234;-28
2021/06/16 21:29:58;;;;;;;9.63;8.57;;;19.90;77.50;;;;;;10363868;28;20194;-30
2021/06/16 21:35:21;;;;;;;9.40;8.50;;;19.90;77.40;;;;;;10365714;28;20211;-32
2021/06/16 21:40:43;;;;;;;9.70;8.80;;;19.90;77.50;;;;;;10368578;28;20219;-30
2021/06/16 21:46:07;;;;;;;11.20;10.10;;;19.90;77.30;;;;;;10367724;28;20206;-29
2021/06/16 21:51:29;;;;;;;10.93;9.93;;;19.90;77.40;;;;;;10368307;28;20225;-33
2021/06/16 21:56:52;;;;;;;11.10;10.13;;;19.90;77.70;;;;;;10367458;28;20206;-28
2021/06/16 22:02:15;;;;;;;10.57;9.67;;;19.90;77.70;;;;;;10365738;28;20241;-33
2021/06/16 22:07:38;;;;;;;11.60;9.43;;;19.90;77.50;;;;;;10367034;28;20202;-32
2021/06/16 22:13:00;;;;;;;11.33;10.17;;;19.90;77.60;;;;;;10366791;28;20225;-28
2021/06/16 22:18:24;;;;;;;11.27;9.60;;;19.90;77.40;;;;;;10366976;28;20240;-28
2021/06/16 22:23:46;;;;;;;11.90;10.03;;;19.90;77.60;;;;;;10366750;28;20621;-27
2021/06/16 22:29:09;;;;;;;10.70;9.70;;;19.90;77.60;;;;;;10366116;28;20198;-28
2021/06/16 22:34:32;;;;;;;10.77;9.67;;;19.90;77.80;;;;;;10365954;28;20237;-27
2021/06/16 22:39:54;;;;;;;10.50;9.50;;;19.90;77.60;;;;;;10365708;28;20597;-32
2021/06/16 22:45:17;;;;;;;10.57;9.17;;;19.90;77.80;;;;;;10365497;28;20190;-34
2021/06/16 22:50:41;;;;;;;10.00;9.00;;;19.90;77.60;;;;;;10365289;28;20215;-30
2021/06/16 22:56:04;;;;;;;10.30;9.30;;;19.90;77.70;;;;;;10365208;28;20205;-31
2021/06/16 23:01:26;;;;;;;10.63;9.17;;;19.90;77.60;;;;;;10365062;28;20227;-32
2021/06/16 23:06:49;;;;;;;10.20;9.20;;;19.90;77.80;;;;;;10363551;28;20224;-33
2021/06/16 23:12:12;;;;;;;11.17;9.70;;;19.80;77.60;;;;;;10365510;28;20217;-29
2021/06/16 23:17:34;;;;;;;10.37;9.37;;;19.90;77.80;;;;;;10358513;28;20191;-28
2021/06/16 23:22:57;;;;;;;10.90;9.77;;;19.80;77.70;;;;;;10363716;28;20226;-27
2021/06/16 23:28:20;;;;;;;10.07;9.07;;;19.90;77.60;;;;;;10364462;28;20202;-30
2021/06/16 23:33:42;;;;;;;10.00;8.70;;;19.80;77.50;;;;;;10336279;22;20238;-28
2021/06/16 23:39:05;;;;;;;10.20;9.20;;;19.80;77.90;;;;;;10322403;28;20226;-27
2021/06/16 23:44:27;;;;;;;9.90;9.00;;;19.80;77.80;;;;;;10323184;28;20219;-28
2021/06/16 23:49:49;;;;;;;10.93;9.03;;;19.80;77.70;;;;;;10323914;28;20194;-26
2021/06/16 23:55:14;;;;;;;9.23;8.33;;;19.80;77.70;;;;;;10323024;28;20215;-28
